Marion, OH (43301)

7:24 PM EST on February 11, 2016 (GMT -0500)
Marion - Chateau | | Change Station
CLOSE
Current Station
Personal Weather Station
Location: Marion, OH
Elevation: 974 ft
Nearby Weather Stations

Elev 974 ft 40.57 °N, 83.11 °W | Updated 4 minutes ago

Overcast
Overcast
18.7 °F
Feels Like 19 °F
N
0.0
Wind Variable Wind from WNW
Gusts 3.0 mph

Today
High -- | Low -- °F
--% Chance of Precip.
Yesterday
High -- | Low -- °F
Precip. -- in
Pressure 30.34 in
Visibility 10.0 miles
Clouds Few 3400 ft
Overcast 5000 ft
Windchill 19 °F
Dew Point 10 °F
Humidity 68%
Rainfall 0.00 in
Snow Depth Not available.
7:31 AM 6:02 PM
Waxing Crescent, 15% visible
METAR KMNN 112353Z AUTO 30004KT 10SM FEW034 OVC050 M08/M15 A3027 RMK AO2 SLP272 T10781150 11061 21078 51013 TSNO
Pressure 30.34 in
Visibility 10.0 miles
Clouds Few 3400 ft
Overcast 5000 ft
Windchill 19 °F
Dew Point 10 °F
Humidity 68%
Rainfall 0.00 in
Snow Depth Not available.
7:31 AM 6:02 PM
Waxing Crescent, 15% visible
METAR KMNN 112353Z AUTO 30004KT 10SM FEW034 OVC050 M08/M15 A3027 RMK AO2 SLP272 T10781150 11061 21078 51013 TSNO

10-Day Weather Forecast

Almanac

Astronomy

Feb. 11, 2016 Rise Set
Actual Time
Civil Twilight
Nautical Twilight
Astronomical Twilight
Moon
Length of Visible Light
Length of Day
Tomorrow will be .
, % of the Moon is Illuminated

Today's Extremes

State Highs State Lows

Community

WunderPhotos

Upload Photos

1,892,191 photos uploaded!

WunderBlog® & News

Nearby

Air Quality

  Air Quality AQ Index Pollutant
Not available.

Snow Depth

Station Depth Elevation

Earthquake Activity

City Distance Mag. Time & Date
Minimum magnitude displayed is 2.5.

Coastal Water Temperatures

Place Temperature

Stations

Nearby Weather Stations

Station Location Temp. Windchill Dew Point Humidity Wind Precip. Elev Updated Type
                   

Watches & Warnings

There are currently no watches in effect.